Time;durP1;ratioP1;P1;durP2;ratioP2;P2;SDS_P1;SDS_P2;PMS_P1;PMS_P2;Temp;Humidity;BMP_temperature;BMP_pressure;BME280_temperature;BME280_humidity;BME280_pressure;Samples;Min_cycle;Max_cycle;Signal;HPM_P1;HPM_P2
2024/01/23 00:00:21;;;;;;;0.05;0.05;;;;;;;4.49;100.00;96623.38;1022989;29;20065;-73
2024/01/23 00:00:51;;;;;;;3.90;0.22;;;;;;;4.46;100.00;96622.94;1015366;29;20044;-71
2024/01/23 00:01:22;;;;;;;0.00;0.00;;;;;;;4.53;100.00;96622.94;1017143;29;20024;-71
2024/01/23 00:01:52;;;;;;;0.00;0.00;;;;;;;4.52;100.00;96632.53;1015392;29;20055;-73
2024/01/23 00:02:23;;;;;;;0.32;0.32;;;;;;;4.50;100.00;96634.56;1015116;29;20048;-72
2024/01/23 00:02:54;;;;;;;0.05;0.05;;;;;;;4.53;100.00;96628.13;1022721;28;20102;-72
2024/01/23 00:03:25;;;;;;;0.00;0.00;;;;;;;4.58;100.00;96626.53;1025278;28;20083;-74
2024/01/23 00:03:55;;;;;;;0.00;0.00;;;;;;;4.57;100.00;96632.75;1035012;28;20018;-72
2024/01/23 00:04:26;;;;;;;0.00;0.00;;;;;;;4.55;100.00;96629.53;1034738;28;20269;-70
2024/01/23 00:04:56;;;;;;;0.40;0.40;;;;;;;4.53;100.00;96631.56;1034542;28;20120;-73
2024/01/23 00:05:27;;;;;;;2.17;0.45;;;;;;;4.48;100.00;96613.97;1030849;28;20542;-74
2024/01/23 00:05:57;;;;;;;3.83;0.55;;;;;;;4.52;100.00;96618.75;1031431;28;20052;-74
2024/01/23 00:06:28;;;;;;;0.60;0.60;;;;;;;4.52;100.00;96629.16;1026889;28;20034;-72
2024/01/23 00:06:58;;;;;;;0.00;0.00;;;;;;;4.46;100.00;96626.38;1026987;28;20027;-72
2024/01/23 00:07:29;;;;;;;0.15;0.15;;;;;;;4.51;100.00;96630.16;1023373;28;20015;-74
2024/01/23 00:07:59;;;;;;;0.00;0.00;;;;;;;4.52;100.00;96629.94;1026909;28;20474;-72
2024/01/23 00:08:30;;;;;;;0.00;0.00;;;;;;;4.55;100.00;96626.16;1030468;28;20069;-72
2024/01/23 00:09:00;;;;;;;0.03;0.03;;;;;;;4.57;100.00;96634.56;1023158;29;20054;-73
2024/01/23 00:09:30;;;;;;;0.00;0.00;;;;;;;4.56;100.00;96638.13;1025490;28;20031;-72
2024/01/23 00:10:01;;;;;;;0.00;0.00;;;;;;;4.57;100.00;96637.94;1022969;28;20030;-74
2024/01/23 00:10:31;;;;;;;0.00;0.00;;;;;;;4.54;100.00;96640.94;1019261;28;20036;-72
2024/01/23 00:11:02;;;;;;;0.00;0.00;;;;;;;4.54;100.00;96630.56;1026878;28;20023;-72
2024/01/23 00:11:32;;;;;;;0.08;0.08;;;;;;;4.61;100.00;96646.13;1019309;28;20036;-72
2024/01/23 00:12:05;;;;;;;0.10;0.10;;;;;;;4.56;100.00;96632.94;1022863;29;20034;-71
2024/01/23 00:12:35;;;;;;;0.20;0.17;;;;;;;4.59;100.00;96635.13;1026732;28;20030;-72
2024/01/23 00:13:06;;;;;;;0.00;0.00;;;;;;;4.58;100.00;96646.53;1026999;28;20269;-71
2024/01/23 00:13:36;;;;;;;0.57;0.47;;;;;;;4.60;100.00;96649.75;1018567;29;20031;-74
2024/01/23 00:14:07;;;;;;;0.00;0.00;;;;;;;4.64;100.00;96648.34;1022553;28;20689;-73
2024/01/23 00:14:37;;;;;;;0.32;0.32;;;;;;;4.63;100.00;96644.94;1027009;28;20081;-72
2024/01/23 00:15:08;;;;;;;0.00;0.00;;;;;;;4.66;100.00;96654.13;1026640;28;20042;-72
2024/01/23 00:15:39;;;;;;;0.00;0.00;;;;;;;4.53;100.00;96623.75;1028110;28;20576;-72
2024/01/23 00:16:09;;;;;;;0.00;0.00;;;;;;;4.65;100.00;96652.53;1026730;28;20443;-72
2024/01/23 00:16:39;;;;;;;0.08;0.03;;;;;;;4.60;100.00;96649.75;1026060;28;20026;-72
2024/01/23 00:17:10;;;;;;;0.00;0.00;;;;;;;4.64;100.00;96640.53;1029747;28;20038;-71
2024/01/23 00:17:40;;;;;;;0.22;0.17;;;;;;;4.64;100.00;96646.53;1030122;28;20053;-73
2024/01/23 00:18:11;;;;;;;0.28;0.08;;;;;;;4.64;100.00;96645.75;1030678;28;20022;-73
2024/01/23 00:18:41;;;;;;;0.38;0.38;;;;;;;4.67;100.00;96653.13;1030616;28;20090;-73
2024/01/23 00:19:12;;;;;;;0.00;0.00;;;;;;;4.69;100.00;96656.31;1023229;28;20019;-72
2024/01/23 00:19:42;;;;;;;0.00;0.00;;;;;;;4.64;100.00;96654.34;1023171;29;20054;-70
2024/01/23 00:20:13;;;;;;;0.00;0.00;;;;;;;4.66;100.00;96654.94;1018083;28;20415;-73
2024/01/23 00:20:43;;;;;;;0.95;0.95;;;;;;;4.64;100.00;96654.34;1023174;28;20038;-72
2024/01/23 00:21:14;;;;;;;0.08;0.08;;;;;;;4.62;100.00;96655.53;1027181;28;20414;-73
2024/01/23 00:21:44;;;;;;;0.00;0.00;;;;;;;4.61;100.00;96654.72;1022300;28;20023;-74
2024/01/23 00:22:15;;;;;;;0.00;0.00;;;;;;;4.61;100.00;96659.13;1019271;29;20023;-74
2024/01/23 00:22:45;;;;;;;0.00;0.00;;;;;;;4.62;100.00;96656.31;1019399;29;20039;-71
2024/01/23 00:23:16;;;;;;;0.00;0.00;;;;;;;4.62;100.00;96663.31;1019103;28;20035;-72
2024/01/23 00:23:46;;;;;;;0.00;0.00;;;;;;;4.60;100.00;96662.75;1027470;28;20038;-72
2024/01/23 00:24:17;;;;;;;0.00;0.00;;;;;;;4.59;100.00;96664.53;1034153;28;20026;-72
2024/01/23 00:24:47;;;;;;;0.00;0.00;;;;;;;4.61;100.00;96652.13;1022679;28;20483;-70
2024/01/23 00:25:18;;;;;;;0.00;0.00;;;;;;;4.61;100.00;96656.53;1022183;28;20086;-71
2024/01/23 00:25:48;;;;;;;1.67;1.15;;;;;;;4.66;100.00;96636.75;1026751;28;20035;-73
2024/01/23 00:26:19;;;;;;;8.77;0.57;;;;;;;4.70;100.00;96650.13;1024056;28;20027;-72
2024/01/23 00:26:49;;;;;;;0.00;0.00;;;;;;;4.68;100.00;96667.72;1025774;28;20063;-73
2024/01/23 00:27:20;;;;;;;0.00;0.00;;;;;;;4.65;100.00;96663.72;1024139;28;20027;-72
2024/01/23 00:27:51;;;;;;;3.00;0.75;;;;;;;4.63;100.00;96659.75;1027100;28;20387;-73
2024/01/23 00:28:22;;;;;;;0.00;0.00;;;;;;;4.61;100.00;96646.94;1024723;28;20031;-74
2024/01/23 00:28:53;;;;;;;0.00;0.00;;;;;;;4.61;100.00;96661.72;1023442;28;20263;-74
2024/01/23 00:29:24;;;;;;;0.70;0.38;;;;;;;4.57;100.00;96647.56;1028667;28;20023;-74
2024/01/23 00:29:54;;;;;;;0.00;0.00;;;;;;;4.54;100.00;96653.94;1023471;28;20049;-73
2024/01/23 00:30:25;;;;;;;0.00;0.00;;;;;;;4.55;100.00;96647.72;1022276;28;20134;-72
2024/01/23 00:30:55;;;;;;;1.40;0.38;;;;;;;4.51;100.00;96640.56;1019552;29;20027;-73
2024/01/23 00:31:26;;;;;;;0.08;0.08;;;;;;;4.49;100.00;96651.13;1023096;28;20035;-73
2024/01/23 00:31:57;;;;;;;0.70;0.70;;;;;;;4.48;100.00;96663.34;1023621;28;20073;-73
2024/01/23 00:32:30;;;;;;;0.00;0.00;;;;;;;4.41;100.00;96652.16;1031279;28;20034;-76
2024/01/23 00:33:01;;;;;;;0.00;0.00;;;;;;;4.38;100.00;96647.34;1035436;28;20025;-73
2024/01/23 00:33:31;;;;;;;0.00;0.00;;;;;;;4.41;100.00;96641.75;1031589;28;20277;-72
2024/01/23 00:34:02;;;;;;;0.22;0.20;;;;;;;4.38;100.00;96646.56;1027178;28;20034;-74
2024/01/23 00:34:32;;;;;;;0.00;0.00;;;;;;;4.31;100.00;96643.97;1027221;28;20050;-73
2024/01/23 00:35:03;;;;;;;0.45;0.45;;;;;;;4.27;100.00;96637.56;1031584;28;20672;-72
2024/01/23 00:35:34;;;;;;;1.08;0.38;;;;;;;4.27;100.00;96641.97;1031389;28;20217;-74
2024/01/23 00:36:05;;;;;;;0.00;0.00;;;;;;;4.19;100.00;96638.56;1031426;28;20429;-73
2024/01/23 00:36:35;;;;;;;0.00;0.00;;;;;;;4.15;100.00;96637.34;1022359;29;20419;-74
2024/01/23 00:37:06;;;;;;;0.00;0.00;;;;;;;4.13;100.00;96635.97;1018999;29;20279;-74
2024/01/23 00:37:37;;;;;;;0.00;0.00;;;;;;;4.07;100.00;96634.16;1022609;29;20023;-73
2024/01/23 00:38:07;;;;;;;0.00;0.00;;;;;;;3.98;100.00;96616.16;1015310;29;20195;-74
2024/01/23 00:38:38;;;;;;;0.00;0.00;;;;;;;4.00;100.00;96629.75;1022366;28;20114;-72
2024/01/23 00:39:09;;;;;;;0.00;0.00;;;;;;;3.96;100.00;96631.16;1027262;28;20035;-72
2024/01/23 00:39:39;;;;;;;0.00;0.00;;;;;;;3.92;100.00;96621.34;1023189;28;20042;-74
2024/01/23 00:40:11;;;;;;;0.00;0.00;;;;;;;3.91;100.00;96624.97;1027445;28;20115;-72
2024/01/23 00:40:41;;;;;;;0.00;0.00;;;;;;;3.89;100.00;96621.75;1031498;28;20121;-74
2024/01/23 00:41:12;;;;;;;0.00;0.00;;;;;;;3.95;100.00;96620.97;1026970;28;20926;-72
2024/01/23 00:41:42;;;;;;;0.00;0.00;;;;;;;3.93;100.00;96615.19;1027245;28;20034;-73
2024/01/23 00:42:13;;;;;;;0.55;0.20;;;;;;;3.85;100.00;96615.34;1026743;28;20593;-72
2024/01/23 00:42:43;;;;;;;0.00;0.00;;;;;;;3.91;100.00;96625.75;1023010;28;20071;-73
2024/01/23 00:43:14;;;;;;;0.05;0.05;;;;;;;3.91;100.00;96620.56;1031148;28;20082;-75
2024/01/23 00:43:44;;;;;;;0.00;0.00;;;;;;;3.92;100.00;96618.75;1020162;29;20067;-73
2024/01/23 00:44:15;;;;;;;0.10;0.03;;;;;;;3.88;100.00;96620.97;1019721;28;20030;-72
2024/01/23 00:44:45;;;;;;;0.00;0.00;;;;;;;3.88;100.00;96622.75;1023122;29;20074;-71
2024/01/23 00:45:16;;;;;;;0.00;0.00;;;;;;;3.89;100.00;96621.75;1019389;29;20051;-75
2024/01/23 00:45:46;;;;;;;0.00;0.00;;;;;;;3.88;100.00;96631.34;1022711;29;20050;-73
2024/01/23 00:46:16;;;;;;;0.00;0.00;;;;;;;3.94;100.00;96614.19;1019142;29;20555;-72
2024/01/23 00:46:47;;;;;;;0.00;0.00;;;;;;;3.92;100.00;96622.19;1019251;29;20039;-72
2024/01/23 00:47:17;;;;;;;1.25;1.15;;;;;;;3.89;100.00;96616.56;1025379;28;20464;-73
2024/01/23 00:47:48;;;;;;;0.00;0.00;;;;;;;3.91;100.00;96615.38;1027088;28;20130;-72
2024/01/23 00:48:18;;;;;;;0.00;0.00;;;;;;;3.90;100.00;96624.16;1031116;28;20113;-72
2024/01/23 00:48:49;;;;;;;0.10;0.00;;;;;;;3.92;100.00;96617.00;1034824;28;20034;-72
2024/01/23 00:49:19;;;;;;;0.22;0.20;;;;;;;3.90;100.00;96624.16;1031207;28;20081;-73
2024/01/23 00:49:50;;;;;;;0.00;0.00;;;;;;;3.91;100.00;96615.38;1031244;28;20030;-73
2024/01/23 00:50:20;;;;;;;0.00;0.00;;;;;;;3.92;100.00;96617.00;1026848;28;20486;-74
2024/01/23 00:50:51;;;;;;;0.40;0.40;;;;;;;3.88;100.00;96615.75;1029833;28;20033;-74
2024/01/23 00:51:21;;;;;;;0.00;0.00;;;;;;;3.91;100.00;96630.16;1030534;28;20030;-72
2024/01/23 00:51:51;;;;;;;0.00;0.00;;;;;;;3.88;100.00;96620.97;1027042;28;20027;-72
2024/01/23 00:52:22;;;;;;;0.08;0.08;;;;;;;3.93;100.00;96617.78;1025960;28;20128;-73
2024/01/23 00:52:52;;;;;;;0.17;0.10;;;;;;;3.84;100.00;96595.59;1024472;28;20035;-73
2024/01/23 00:53:23;;;;;;;0.00;0.00;;;;;;;3.88;100.00;96620.97;1022974;28;20039;-73
2024/01/23 00:53:53;;;;;;;0.00;0.00;;;;;;;3.92;100.00;96619.59;1018734;29;20050;-73
2024/01/23 00:54:24;;;;;;;0.00;0.00;;;;;;;3.90;100.00;96618.97;1022325;29;20482;-74
2024/01/23 00:54:58;;;;;;;0.00;0.00;;;;;;;3.87;100.00;96615.97;1026885;28;20038;-73
2024/01/23 00:55:29;;;;;;;0.00;0.00;;;;;;;3.88;100.00;96615.75;1025536;28;20038;-73
2024/01/23 00:55:59;;;;;;;0.00;0.00;;;;;;;3.95;100.00;96624.34;1023069;28;20714;-72
2024/01/23 00:56:30;;;;;;;0.00;0.00;;;;;;;3.92;100.00;96618.75;1022557;29;20035;-74
2024/01/23 00:57:00;;;;;;;0.30;0.30;;;;;;;3.91;100.00;96620.56;1022167;29;20039;-74
2024/01/23 00:57:32;;;;;;;0.00;0.00;;;;;;;3.83;100.00;96614.78;1020451;28;20058;-71
2024/01/23 00:58:02;;;;;;;0.22;0.22;;;;;;;3.86;100.00;96617.78;1017935;29;20397;-73
2024/01/23 00:58:33;;;;;;;0.60;0.60;;;;;;;3.83;100.00;96618.16;1018421;29;20279;-72
2024/01/23 00:59:03;;;;;;;0.05;0.05;;;;;;;3.78;100.00;96612.75;1018760;29;20046;-73
2024/01/23 00:59:34;;;;;;;0.00;0.00;;;;;;;3.76;100.00;96614.78;1017128;29;20555;-73
2024/01/23 01:00:05;;;;;;;0.00;0.00;;;;;;;3.72;100.00;96622.16;1018883;29;20035;-74
2024/01/23 01:00:36;;;;;;;0.00;0.00;;;;;;;3.75;100.00;96626.91;1026393;28;20026;-72
2024/01/23 01:01:06;;;;;;;0.35;0.17;;;;;;;3.80;100.00;96617.75;1030768;28;20297;-73
2024/01/23 01:01:37;;;;;;;0.20;0.20;;;;;;;3.76;100.00;96625.94;1035088;28;20119;-73
2024/01/23 01:02:08;;;;;;;0.00;0.00;;;;;;;3.79;100.00;96627.34;1031172;28;20038;-71
2024/01/23 01:02:38;;;;;;;0.00;0.00;;;;;;;3.74;100.00;96635.72;1022909;29;20031;-72
2024/01/23 01:03:08;;;;;;;0.00;0.00;;;;;;;3.73;100.00;96631.53;1022629;28;20031;-73
2024/01/23 01:03:39;;;;;;;0.00;0.00;;;;;;;3.69;100.00;96619.13;1022367;28;20536;-73
2024/01/23 01:04:09;;;;;;;0.00;0.00;;;;;;;3.73;100.00;96646.31;1027082;28;20085;-72
2024/01/23 01:04:42;;;;;;;0.00;0.00;;;;;;;3.75;100.00;96628.72;1030718;28;20045;-74
2024/01/23 01:05:12;;;;;;;0.08;0.08;;;;;;;3.78;100.00;96636.91;1030816;28;20070;-73
2024/01/23 01:05:45;;;;;;;0.00;0.00;;;;;;;3.76;100.00;96632.94;1031279;28;20277;-73
2024/01/23 01:06:16;;;;;;;0.55;0.55;;;;;;;3.81;100.00;96638.31;1031529;28;20034;-72
2024/01/23 01:06:46;;;;;;;0.00;0.00;;;;;;;3.82;100.00;96626.94;1030913;28;20656;-74
2024/01/23 01:07:17;;;;;;;0.00;0.00;;;;;;;3.80;100.00;96630.75;1030909;28;20089;-75
2024/01/23 01:07:47;;;;;;;0.00;0.00;;;;;;;3.82;100.00;96626.94;1030798;28;20085;-71
2024/01/23 01:08:17;;;;;;;0.00;0.00;;;;;;;3.81;100.00;96625.34;1030771;28;20030;-73
2024/01/23 01:08:48;;;;;;;0.10;0.05;;;;;;;3.81;100.00;96633.13;1030430;28;20034;-73
2024/01/23 01:09:18;;;;;;;0.00;0.00;;;;;;;3.83;100.00;96631.16;1025786;28;20030;-73
2024/01/23 01:09:49;;;;;;;0.00;0.00;;;;;;;3.76;100.00;96602.59;1022879;28;20543;-73
2024/01/23 01:10:19;;;;;;;0.30;0.30;;;;;;;3.87;100.00;96629.75;1019083;29;20023;-72
2024/01/23 01:10:50;;;;;;;0.00;0.00;;;;;;;3.85;100.00;96630.94;1022785;28;20024;-72
2024/01/23 01:11:20;;;;;;;0.00;0.00;;;;;;;3.84;100.00;96616.38;1019742;29;20015;-73
2024/01/23 01:11:51;;;;;;;0.00;0.00;;;;;;;3.83;100.00;96628.56;1019220;28;20020;-73
2024/01/23 01:12:21;;;;;;;0.00;0.00;;;;;;;3.82;100.00;96628.72;1026872;28;20430;-73
2024/01/23 01:12:53;;;;;;;0.00;0.00;;;;;;;3.76;100.00;96622.56;1019100;29;20020;-71
2024/01/23 01:13:23;;;;;;;0.00;0.00;;;;;;;3.72;100.00;96621.31;1022838;28;20676;-72
2024/01/23 01:13:54;;;;;;;0.00;0.00;;;;;;;3.75;100.00;96626.91;1026831;28;20335;-72
2024/01/23 01:14:24;;;;;;;0.00;0.00;;;;;;;3.75;100.00;96621.72;1029087;28;20019;-74
2024/01/23 01:14:55;;;;;;;0.10;0.10;;;;;;;3.69;100.00;96619.94;1036663;28;20496;-72
2024/01/23 01:15:25;;;;;;;0.00;0.00;;;;;;;3.74;100.00;96629.72;1030596;28;20054;-73
2024/01/23 01:15:56;;;;;;;0.03;0.00;;;;;;;3.73;100.00;96628.13;1027011;28;20499;-72
2024/01/23 01:16:26;;;;;;;0.00;0.00;;;;;;;3.64;100.00;96618.94;1022558;28;20035;-75
2024/01/23 01:16:56;;;;;;;0.50;0.50;;;;;;;3.66;100.00;96622.13;1023415;28;20086;-73
2024/01/23 01:17:27;;;;;;;0.00;0.00;;;;;;;3.70;100.00;96631.13;1026866;28;20475;-73
2024/01/23 01:17:57;;;;;;;0.00;0.00;;;;;;;3.68;100.00;96620.94;1030766;28;20041;-75
2024/01/23 01:18:28;;;;;;;0.00;0.00;;;;;;;3.76;100.00;96625.94;1022652;28;20026;-74
2024/01/23 01:18:58;;;;;;;2.22;1.77;;;;;;;3.73;100.00;96621.16;1027028;28;20069;-72
2024/01/23 01:19:29;;;;;;;0.00;0.00;;;;;;;3.72;100.00;96621.31;1030852;28;20035;-73
2024/01/23 01:19:59;;;;;;;0.00;0.00;;;;;;;3.72;100.00;96621.31;1026092;28;20038;-74
2024/01/23 01:20:30;;;;;;;0.00;0.00;;;;;;;3.70;100.00;96626.72;1030809;28;20088;-74
2024/01/23 01:21:00;;;;;;;0.00;0.00;;;;;;;3.70;100.00;96618.94;1027027;28;20035;-74
2024/01/23 01:21:31;;;;;;;0.10;0.10;;;;;;;3.70;100.00;96618.16;1027056;28;20027;-74
2024/01/23 01:22:01;;;;;;;0.00;0.00;;;;;;;3.66;100.00;96616.94;1030723;28;20027;-74
2024/01/23 01:22:31;;;;;;;0.00;0.00;;;;;;;3.56;100.00;96609.53;1027174;28;20026;-74
2024/01/23 01:23:02;;;;;;;0.00;0.00;;;;;;;3.56;100.00;96622.50;1026844;28;20070;-75
2024/01/23 01:23:33;;;;;;;0.00;0.00;;;;;;;3.67;100.00;96618.53;1025471;28;20027;-74
2024/01/23 01:24:03;;;;;;;0.38;0.38;;;;;;;3.61;100.00;96621.91;1023123;28;20618;-73
2024/01/23 01:24:34;;;;;;;0.00;0.00;;;;;;;3.58;100.00;96630.09;1027195;28;20032;-74
2024/01/23 01:25:04;;;;;;;0.30;0.30;;;;;;;3.63;100.00;96623.31;1019363;29;20524;-75
2024/01/23 01:25:35;;;;;;;0.10;0.10;;;;;;;3.67;100.00;96618.53;1023069;29;20115;-74
2024/01/23 01:26:05;;;;;;;0.00;0.00;;;;;;;3.67;100.00;96618.53;1022948;29;20030;-74
2024/01/23 01:26:37;;;;;;;0.10;0.10;;;;;;;3.74;100.00;96619.34;1019435;29;20602;-73
2024/01/23 01:27:08;;;;;;;0.00;0.00;;;;;;;3.77;100.00;96619.75;1027557;28;20526;-73
2024/01/23 01:27:38;;;;;;;0.10;0.10;;;;;;;3.75;100.00;96615.75;1030976;28;20269;-73
2024/01/23 01:28:09;;;;;;;0.00;0.00;;;;;;;3.73;100.00;96620.34;1027115;28;20066;-75
2024/01/23 01:28:39;;;;;;;0.00;0.00;;;;;;;3.70;100.00;96618.94;1029404;28;20473;-73
2024/01/23 01:29:10;;;;;;;0.00;0.00;;;;;;;3.64;100.00;96624.13;1023161;29;20027;-73
2024/01/23 01:29:41;;;;;;;0.00;0.00;;;;;;;3.63;100.00;96614.75;1022514;29;20027;-75
2024/01/23 01:30:11;;;;;;;0.00;0.00;;;;;;;3.64;100.00;96621.53;1022616;29;20510;-74
2024/01/23 01:30:42;;;;;;;0.00;0.00;;;;;;;3.62;100.00;96621.72;1023325;28;20081;-74
2024/01/23 01:31:12;;;;;;;0.00;0.00;;;;;;;3.65;100.00;96621.31;1026912;28;20106;-73
2024/01/23 01:31:43;;;;;;;0.10;0.10;;;;;;;3.72;100.00;96632.53;1020063;29;20043;-75
2024/01/23 01:32:13;;;;;;;0.00;0.00;;;;;;;3.79;100.00;96624.75;1022866;28;20038;-73
2024/01/23 01:32:44;;;;;;;0.00;0.00;;;;;;;3.75;100.00;96615.75;1026874;28;20042;-73
2024/01/23 01:33:14;;;;;;;0.00;0.00;;;;;;;3.75;100.00;96620.94;1023282;28;20487;-75
2024/01/23 01:33:45;;;;;;;0.00;0.00;;;;;;;3.75;100.00;96626.91;1030696;28;20109;-75
2024/01/23 01:34:15;;;;;;;0.00;0.00;;;;;;;3.71;100.00;96617.13;1030703;28;20030;-73
2024/01/23 01:34:46;;;;;;;0.00;0.00;;;;;;;3.77;100.00;96624.16;1023092;28;20412;-73
2024/01/23 01:35:16;;;;;;;0.20;0.10;;;;;;;3.76;100.00;96623.34;1027006;28;20093;-73
2024/01/23 01:35:46;;;;;;;0.00;0.00;;;;;;;3.76;100.00;96627.75;1030845;28;20030;-74
2024/01/23 01:36:17;;;;;;;0.00;0.00;;;;;;;3.83;100.00;96620.75;1030460;28;20037;-72
2024/01/23 01:36:47;;;;;;;0.00;0.00;;;;;;;3.80;100.00;96621.16;1034735;28;20038;-73
2024/01/23 01:37:18;;;;;;;0.00;0.00;;;;;;;3.80;100.00;96623.75;1034202;28;20551;-75
2024/01/23 01:37:48;;;;;;;0.00;0.00;;;;;;;3.81;100.00;96619.34;1030736;28;20418;-70
2024/01/23 01:38:19;;;;;;;0.00;0.00;;;;;;;3.82;100.00;96611.34;1030599;28;20054;-73
2024/01/23 01:38:49;;;;;;;0.00;0.00;;;;;;;3.79;100.00;96616.97;1033617;28;20041;-72
2024/01/23 01:39:20;;;;;;;0.00;0.00;;;;;;;3.80;100.00;96617.75;1034792;28;20473;-74
2024/01/23 01:39:50;;;;;;;0.00;0.00;;;;;;;3.79;100.00;96611.78;1030859;28;20273;-73
2024/01/23 01:40:21;;;;;;;0.00;0.00;;;;;;;3.80;100.00;96622.97;1026711;28;20042;-73
2024/01/23 01:40:51;;;;;;;0.05;0.05;;;;;;;3.78;100.00;96621.34;1022607;29;20055;-72
2024/01/23 01:41:22;;;;;;;0.10;0.10;;;;;;;3.81;100.00;96608.97;1023029;28;20127;-74
2024/01/23 01:41:53;;;;;;;0.00;0.00;;;;;;;3.80;100.00;96608.19;1022872;28;20402;-73
2024/01/23 01:42:24;;;;;;;0.00;0.00;;;;;;;3.71;100.00;96612.75;1027995;28;20030;-73
2024/01/23 01:42:54;;;;;;;0.00;0.00;;;;;;;3.77;100.00;96618.94;1032667;28;20648;-74
2024/01/23 01:43:29;;;;;;;0.00;0.00;;;;;;;3.72;100.00;96616.97;1026713;28;20133;-72
2024/01/23 01:43:59;;;;;;;0.00;0.00;;;;;;;3.70;100.00;96613.75;1022163;28;20058;-73
2024/01/23 01:44:32;;;;;;;0.00;0.00;;;;;;;3.65;100.00;96612.72;1026846;28;20767;-73
2024/01/23 01:45:03;;;;;;;0.10;0.10;;;;;;;3.66;100.00;96614.34;1027548;28;20041;-73
2024/01/23 01:45:33;;;;;;;0.00;0.00;;;;;;;3.64;100.00;96618.94;1029904;28;20272;-73
2024/01/23 01:46:20;;;;;;;0.00;0.00;;;;;;;3.64;100.00;96617.13;1034800;28;20030;-74
2024/01/23 01:46:51;;;;;;;0.00;0.00;;;;;;;3.63;100.00;96617.34;1030910;28;20048;-75
2024/01/23 01:47:21;;;;;;;0.00;0.00;;;;;;;3.61;100.00;96609.72;1028840;28;20638;-73
2024/01/23 01:47:53;;;;;;;0.00;0.00;;;;;;;3.71;100.00;96615.34;1026669;28;20407;-74
2024/01/23 01:48:25;;;;;;;0.00;0.00;;;;;;;3.75;100.00;96608.75;1022567;28;20106;-73
2024/01/23 01:48:56;;;;;;;1.77;1.45;;;;;;;3.72;100.00;96605.75;1022931;28;20271;-73
2024/01/23 01:49:26;;;;;;;0.00;0.00;;;;;;;3.66;100.00;96606.56;1018633;29;20263;-73
2024/01/23 01:49:57;;;;;;;0.00;0.00;;;;;;;3.64;100.00;96604.16;1022759;29;20027;-74
2024/01/23 01:50:27;;;;;;;0.00;0.00;;;;;;;3.68;100.00;96607.16;1026621;28;20011;-74
2024/01/23 01:50:57;;;;;;;0.00;0.00;;;;;;;3.67;100.00;96608.94;1018944;29;20511;-74
2024/01/23 01:51:28;;;;;;;1.45;0.40;;;;;;;3.61;100.00;96611.53;1020871;29;20051;-73
2024/01/23 01:51:59;;;;;;;0.00;0.00;;;;;;;3.62;100.00;96607.94;1026537;28;20370;-73
2024/01/23 01:52:30;;;;;;;0.00;0.00;;;;;;;3.60;100.00;96610.75;1024086;28;20034;-74
2024/01/23 01:53:03;;;;;;;0.00;0.00;;;;;;;3.56;100.00;96612.13;1022907;28;20035;-73
2024/01/23 01:53:33;;;;;;;0.00;0.00;;;;;;;3.61;100.00;96616.72;1024368;28;20370;-73
2024/01/23 01:54:04;;;;;;;0.00;0.00;;;;;;;3.58;100.00;96623.09;1026486;28;20278;-74
2024/01/23 01:54:34;;;;;;;0.00;0.00;;;;;;;3.54;100.00;96621.91;1029215;28;20331;-73
2024/01/23 01:55:06;;;;;;;0.00;0.00;;;;;;;3.52;100.00;96623.88;1019796;28;20031;-73
2024/01/23 01:55:36;;;;;;;0.00;0.00;;;;;;;3.50;100.00;96618.91;1015804;29;20384;-73
2024/01/23 01:56:07;;;;;;;0.00;0.00;;;;;;;3.41;100.00;96604.50;1014437;29;20280;-73
2024/01/23 01:56:37;;;;;;;0.00;0.00;;;;;;;3.50;100.00;96618.09;1018165;29;20026;-74
2024/01/23 01:57:07;;;;;;;0.10;0.10;;;;;;;3.49;100.00;96616.50;1018645;29;20062;-73
2024/01/23 01:57:41;;;;;;;0.00;0.00;;;;;;;3.54;100.00;96629.69;1022768;28;20078;-72
2024/01/23 01:58:11;;;;;;;0.00;0.00;;;;;;;3.52;100.00;96624.69;1018974;29;20140;-73
2024/01/23 01:58:45;;;;;;;6.50;1.17;;;;;;;3.58;100.00;96635.28;1022221;28;20270;-73
2024/01/23 01:59:18;;;;;;;0.00;0.00;;;;;;;3.53;100.00;96634.06;1015264;29;20020;-73
2024/01/23 01:59:51;;;;;;;0.00;0.00;;;;;;;3.49;100.00;96630.28;1019619;29;20879;-71
2024/01/23 02:00:21;;;;;;;0.00;0.00;;;;;;;3.43;100.00;96618.09;1025080;28;20290;-73
2024/01/23 02:00:53;;;;;;;0.00;0.00;;;;;;;3.50;100.00;96623.28;1032508;28;20270;-73
2024/01/23 02:01:23;;;;;;;0.50;0.50;;;;;;;3.49;100.00;96622.50;1026462;28;20018;-75
2024/01/23 02:01:54;;;;;;;0.20;0.20;;;;;;;3.40;100.00;96623.66;1027200;28;20273;-73
2024/01/23 02:02:24;;;;;;;0.00;0.00;;;;;;;3.35;100.00;96625.22;1020334;29;20023;-73
2024/01/23 02:02:55;;;;;;;0.00;0.00;;;;;;;3.36;100.00;96624.25;1022781;29;20026;-73
2024/01/23 02:03:29;;;;;;;0.05;0.05;;;;;;;3.31;100.00;96623.03;1019016;29;20075;-73
2024/01/23 02:04:00;;;;;;;0.00;0.00;;;;;;;3.33;100.00;96628.03;1018958;29;20031;-73
2024/01/23 02:04:31;;;;;;;0.00;0.00;;;;;;;3.31;100.00;96628.22;1020939;28;20255;-72
2024/01/23 02:05:02;;;;;;;0.00;0.00;;;;;;;3.30;100.00;96633.59;1024170;28;20514;-72
2024/01/23 02:05:32;;;;;;;0.00;0.00;;;;;;;3.23;100.00;96622.41;1026889;28;20250;-76
2024/01/23 02:06:03;;;;;;;0.45;0.45;;;;;;;3.27;100.00;96628.81;1027790;29;20006;-74
2024/01/23 02:06:35;;;;;;;0.00;0.00;;;;;;;3.32;100.00;96639.41;1026677;28;20026;-76
2024/01/23 02:07:06;;;;;;;0.00;0.00;;;;;;;3.33;100.00;96635.81;1027796;28;20255;-73
2024/01/23 02:07:38;;;;;;;0.35;0.35;;;;;;;3.35;100.00;96638.19;1023353;29;20259;-76
2024/01/23 02:08:09;;;;;;;0.00;0.00;;;;;;;3.29;100.00;96627.63;1027495;28;20015;-74
2024/01/23 02:08:39;;;;;;;1.85;0.45;;;;;;;3.30;100.00;96641.38;1022743;29;20331;-74
2024/01/23 02:09:11;;;;;;;0.00;0.00;;;;;;;3.28;100.00;96645.94;1023565;29;20035;-75
2024/01/23 02:09:41;;;;;;;2.47;1.00;;;;;;;3.26;100.00;96645.38;1019550;29;20028;-74
2024/01/23 02:10:13;;;;;;;0.00;0.00;;;;;;;3.19;100.00;96634.97;1027546;28;20275;-74
2024/01/23 02:10:44;;;;;;;0.00;0.00;;;;;;;3.23;100.00;96643.16;1029743;28;20106;-76
2024/01/23 02:11:14;;;;;;;0.00;0.00;;;;;;;3.26;100.00;96638.38;1023008;28;20267;-73
2024/01/23 02:11:58;;;;;;;0.32;0.32;;;;;;;3.26;100.00;96643.56;1026778;28;20167;-74
2024/01/23 02:12:29;;;;;;;0.00;0.00;;;;;;;3.25;100.00;96633.38;1026793;28;20022;-73
2024/01/23 02:12:59;;;;;;;1.95;1.17;;;;;;;3.21;100.00;96634.75;1029484;28;20278;-74
2024/01/23 02:13:29;;;;;;;0.00;0.00;;;;;;;3.15;100.00;96631.13;1032360;28;20268;-75
2024/01/23 02:14:00;;;;;;;0.20;0.20;;;;;;;3.15;100.00;96633.72;1027460;28;20069;-73
2024/01/23 02:14:31;;;;;;;0.00;0.00;;;;;;;3.14;100.00;96641.72;1031084;28;20117;-73
2024/01/23 02:15:01;;;;;;;0.32;0.32;;;;;;;3.18;100.00;96645.50;1030809;28;20034;-73
2024/01/23 02:15:32;;;;;;;0.00;0.00;;;;;;;3.13;100.00;96634.94;1027041;28;20034;-73
2024/01/23 02:16:02;;;;;;;0.20;0.20;;;;;;;3.18;100.00;96641.13;1026722;28;20062;-74
2024/01/23 02:16:33;;;;;;;0.00;0.00;;;;;;;3.16;100.00;96637.16;1028130;28;20035;-73
2024/01/23 02:17:03;;;;;;;1.35;0.55;;;;;;;3.25;100.00;96636.78;1031048;28;20069;-74
2024/01/23 02:17:34;;;;;;;0.00;0.00;;;;;;;3.27;100.00;96644.38;1031162;28;20084;-73
2024/01/23 02:18:04;;;;;;;0.00;0.00;;;;;;;3.28;100.00;96645.94;1038992;28;20022;-73
2024/01/23 02:18:35;;;;;;;0.00;0.00;;;;;;;3.25;100.00;96647.16;1034449;28;20030;-73
2024/01/23 02:19:05;;;;;;;0.00;0.00;;;;;;;3.25;100.00;96646.34;1030875;28;20469;-73
2024/01/23 02:19:35;;;;;;;0.00;0.00;;;;;;;3.25;100.00;96633.38;1023811;28;20023;-73
2024/01/23 02:20:06;;;;;;;3.30;1.55;;;;;;;3.24;100.00;96642.16;1018129;29;20024;-74
2024/01/23 02:20:37;;;;;;;0.00;0.00;;;;;;;3.30;100.00;96637.00;1019471;29;20016;-75
2024/01/23 02:21:08;;;;;;;0.15;0.15;;;;;;;3.22;100.00;96631.16;1019102;29;20398;-73
2024/01/23 02:21:38;;;;;;;0.00;0.00;;;;;;;3.26;100.00;96633.19;1026532;28;20026;-73
2024/01/23 02:22:08;;;;;;;5.15;1.75;;;;;;;3.31;100.00;96638.59;1034832;28;20026;-71
2024/01/23 02:22:39;;;;;;;0.00;0.00;;;;;;;3.33;100.00;96648.78;1034484;28;20022;-72
2024/01/23 02:23:15;;;;;;;0.00;0.00;;;;;;;3.21;100.00;96637.34;1034939;28;20041;-73
2024/01/23 02:23:45;;;;;;;0.00;0.00;;;;;;;3.25;100.00;96646.34;1022680;28;20035;-73
2024/01/23 02:24:15;;;;;;;0.00;0.00;;;;;;;3.23;100.00;96643.16;1027111;28;20769;-73
2024/01/23 02:24:46;;;;;;;0.10;0.10;;;;;;;3.31;100.00;96653.34;1030930;28;20030;-73
2024/01/23 02:25:16;;;;;;;0.00;0.00;;;;;;;3.30;100.00;96651.75;1023429;28;20023;-74